Time;durP1;ratioP1;P1;durP2;ratioP2;P2;SDS_P1;SDS_P2;PMS_P1;PMS_P2;Temp;Humidity;BMP_temperature;BMP_pressure;BME280_temperature;BME280_humidity;BME280_pressure;Samples;Min_cycle;Max_cycle;Signal;HPM_P1;HPM_P2
2022/12/27 00:01:56;;;;;;;4.23;1.23;;;;;;;7.06;100.00;100361.17;3523940;82;98507;-92
2022/12/27 00:06:59;;;;;;;3.77;1.17;;;;;;;6.99;100.00;100348.70;3524532;82;25850;-90
2022/12/27 00:12:02;;;;;;;6.27;1.57;;;;;;;6.91;100.00;100364.14;3529831;82;98924;-90
2022/12/27 00:17:02;;;;;;;6.67;1.33;;;;;;;6.85;100.00;100379.23;3544675;82;26549;-92
2022/12/27 00:22:04;;;;;;;3.57;0.93;;;;;;;6.76;100.00;100389.55;3538843;82;98643;-92
2022/12/27 00:27:04;;;;;;;6.93;1.43;;;;;;;6.65;100.00;100415.83;3544163;82;33222;-91
2022/12/27 00:32:05;;;;;;;5.47;1.30;;;;;;;6.54;100.00;100428.42;3541170;82;98806;-92
2022/12/27 00:37:06;;;;;;;13.23;1.63;;;;;;;6.44;100.00;100437.13;3545761;82;33189;-91
2022/12/27 00:42:07;;;;;;;10.57;1.30;;;;;;;6.39;100.00;100437.97;3536660;82;98874;-91
2022/12/27 00:47:09;;;;;;;6.73;1.97;;;;;;;6.30;100.00;100452.34;3542032;82;33410;-91
2022/12/27 00:52:10;;;;;;;9.50;1.40;;;;;;;6.23;100.00;100460.34;3532575;82;98436;-92
2022/12/27 00:57:10;;;;;;;14.50;1.80;;;;;;;6.13;100.00;100473.94;3540543;82;33179;-89
2022/12/27 01:02:11;;;;;;;8.67;1.97;;;;;;;6.04;100.00;100488.29;3539135;82;98437;-90
2022/12/27 01:07:12;;;;;;;7.70;1.40;;;;;;;5.93;100.00;100489.10;3546649;82;31597;-90
2022/12/27 01:12:14;;;;;;;13.63;2.37;;;;;;;5.79;100.00;100486.70;3538897;82;98794;-91
2022/12/27 01:17:17;;;;;;;6.77;1.67;;;;;;;5.64;100.00;100490.70;3540130;82;28542;-91
2022/12/27 01:22:18;;;;;;;9.40;1.30;;;;;;;5.56;100.00;100495.73;3533857;82;98658;-91
2022/12/27 01:27:18;;;;;;;9.20;1.80;;;;;;;5.45;100.00;100488.55;3541009;82;32227;-93
2022/12/27 01:32:19;;;;;;;12.13;1.70;;;;;;;5.34;100.00;100481.17;3531158;82;98356;-92
2022/12/27 01:37:20;;;;;;;17.10;2.93;;;;;;;5.19;100.00;100484.57;3525011;83;32272;-90
2022/12/27 01:48:16;;;;;;;11.60;2.17;;;;;;;5.02;100.00;100496.46;3521220;82;27561;-91
2022/12/27 01:53:37;;;;;;;16.97;3.58;;;;;;;4.95;100.00;100514.52;3518353;82;98762;-90
2022/12/27 01:58:51;;;;;;;11.88;1.72;;;;;;;4.84;100.00;100518.80;3521898;82;34570;-91
2022/12/27 02:04:04;;;;;;;9.43;2.52;;;;;;;4.74;100.00;100517.88;3516744;82;98863;-92
2022/12/27 02:09:13;;;;;;;13.10;2.90;;;;;;;4.71;100.00;100521.27;3525472;83;25840;-90
2022/12/27 02:14:25;;;;;;;15.43;2.25;;;;;;;4.63;100.00;100535.79;3527914;81;99084;-91
2022/12/27 02:19:43;;;;;;;11.93;1.83;;;;;;;4.61;100.00;100534.76;3524307;83;29986;-90
2022/12/27 02:24:52;;;;;;;11.15;2.37;;;;;;;4.54;100.00;100533.11;3474361;83;98424;-91
2022/12/27 02:30:01;;;;;;;18.87;2.60;;;;;;;4.53;100.00;100534.25;3486551;83;29133;-91
2022/12/27 02:35:27;;;;;;;9.98;2.62;;;;;;;4.54;100.00;100541.28;3486926;83;98308;-91
2022/12/27 02:57:49;;;;;;;16.07;1.87;;;;;;;4.53;100.00;100574.34;3542031;82;26361;-90
2022/12/27 03:03:20;;;;;;;10.60;2.17;;;;;;;4.56;100.00;100585.38;3536146;82;98537;-90
2022/12/27 03:08:26;;;;;;;10.48;1.70;;;;;;;4.60;100.00;100597.77;3537947;82;33122;-90
2022/12/27 03:25:26;;;;;;;10.00;2.05;;;;;;;4.64;100.00;100602.80;3541901;82;31436;-89
2022/12/27 03:35:15;;;;;;;9.03;1.15;;;;;;;4.71;100.00;100611.23;3537106;82;98585;-90
2022/12/27 03:46:37;;;;;;;10.93;1.50;;;;;;;4.74;100.00;100632.39;3538967;82;25873;-88
2022/12/27 03:51:55;;;;;;;10.78;2.20;;;;;;;4.75;100.00;100635.34;3537915;82;98602;-89
2022/12/27 03:57:04;;;;;;;10.33;1.60;;;;;;;4.77;100.00;100633.06;3513978;82;26588;-89
2022/12/27 04:02:06;;;;;;;12.95;1.67;;;;;;;4.77;100.00;100634.43;3535884;82;98484;-90
2022/12/27 04:07:07;;;;;;;14.30;3.00;;;;;;;4.77;100.00;100643.97;3548346;82;31131;-90
2022/12/27 04:38:44;;;;;;;8.23;1.37;;;;;;;4.77;100.00;100665.78;3539511;82;25861;-92
2022/12/27 05:05:07;;;;;;;6.97;1.57;;;;;;;4.75;100.00;100707.01;3451147;84;98888;-96
2022/12/27 05:15:28;;;;;;;10.33;1.33;;;;;;;4.71;100.00;100712.91;3456717;83;98776;-91
2022/12/27 05:20:29;;;;;;;16.13;2.63;;;;;;;4.68;100.00;100724.47;3464451;84;31708;-89
2022/12/27 05:25:37;;;;;;;11.13;1.80;;;;;;;4.67;100.00;100735.69;3451533;84;98830;-90
2022/12/27 05:30:42;;;;;;;12.57;2.17;;;;;;;4.65;100.00;100729.20;3454323;84;25987;-88
2022/12/27 05:35:43;;;;;;;9.48;1.55;;;;;;;4.63;100.00;100735.55;3454650;84;98520;-91
2022/12/27 05:40:44;;;;;;;13.77;2.10;;;;;;;4.60;100.00;100751.77;3463601;84;31917;-90
2022/12/27 05:45:46;;;;;;;11.30;1.70;;;;;;;4.54;100.00;100759.91;3451346;84;98406;-93
2022/12/27 05:50:47;;;;;;;12.53;2.23;;;;;;;4.47;100.00;100765.08;3456545;84;26029;-89
2022/12/27 05:55:57;;;;;;;7.00;1.60;;;;;;;4.42;100.00;100762.53;3454464;83;98773;-88
2022/12/27 06:00:59;;;;;;;14.93;1.90;;;;;;;4.33;100.00;100752.23;3461777;84;27598;-89
2022/12/27 06:06:03;;;;;;;12.13;1.90;;;;;;;4.25;100.00;100759.89;3460590;84;27282;-87
2022/12/27 06:11:11;;;;;;;8.27;2.00;;;;;;;4.15;100.00;100776.01;3457677;84;98499;-86
2022/12/27 06:16:12;;;;;;;6.93;1.83;;;;;;;4.07;100.00;100786.38;3456389;84;28917;-87
2022/12/27 06:21:17;;;;;;;11.90;2.93;;;;;;;4.02;100.00;100790.64;3455687;84;99181;-87
2022/12/27 06:26:22;;;;;;;9.98;1.87;;;;;;;3.98;100.00;100800.57;3455722;84;26747;-87
2022/12/27 06:31:25;;;;;;;7.90;1.60;;;;;;;3.93;100.00;100799.37;3457061;84;98737;-93
2022/12/27 06:36:28;;;;;;;11.10;2.17;;;;;;;3.92;100.00;100814.13;3462877;84;25863;-86
2022/12/27 06:41:28;;;;;;;11.10;2.15;;;;;;;3.90;100.00;100815.02;3453591;84;98930;-88
2022/12/27 06:46:29;;;;;;;9.50;2.10;;;;;;;3.89;100.00;100820.23;3462586;84;32213;-87
2022/12/27 06:51:30;;;;;;;16.47;3.17;;;;;;;3.89;100.00;100834.39;3454230;84;98973;-88
2022/12/27 06:56:31;;;;;;;14.53;2.63;;;;;;;3.88;100.00;100839.61;3454179;84;32450;-87
2022/12/27 07:01:31;;;;;;;10.23;2.13;;;;;;;3.87;100.00;100847.54;3450984;84;98699;-88
2022/12/27 07:06:36;;;;;;;12.57;4.33;;;;;;;3.86;100.00;100852.72;3440180;84;30673;-87
2022/12/27 07:11:37;;;;;;;10.30;2.13;;;;;;;3.85;100.00;100861.47;3455383;84;99347;-89
2022/12/27 07:16:37;;;;;;;7.53;1.80;;;;;;;3.87;100.00;100876.12;3457858;84;32177;-90
2022/12/27 07:21:38;;;;;;;6.63;1.70;;;;;;;3.81;100.00;100891.00;3455994;84;98718;-87
2022/12/27 07:26:39;;;;;;;12.47;2.73;;;;;;;3.79;100.00;100885.90;3461538;84;32253;-88
2022/12/27 07:31:40;;;;;;;12.55;4.78;;;;;;;3.76;100.00;100899.35;3447920;84;98942;-86
2022/12/27 07:36:41;;;;;;;11.03;2.43;;;;;;;3.76;100.00;100906.16;3460223;83;31781;-88
2022/12/27 07:41:42;;;;;;;11.87;2.70;;;;;;;3.73;100.00;100917.67;3448673;84;98482;-86
2022/12/27 07:46:45;;;;;;;14.30;4.80;;;;;;;3.71;100.00;100916.62;3458118;84;28876;-89
2022/12/27 07:51:46;;;;;;;8.40;2.13;;;;;;;3.68;100.00;100909.11;3458249;83;98786;-88
2022/12/27 07:56:47;;;;;;;11.80;2.67;;;;;;;3.70;100.00;100915.02;3457912;84;34890;-87
2022/12/27 08:02:02;;;;;;;13.50;3.03;;;;;;;3.68;100.00;100918.64;3452955;84;98561;-89
2022/12/27 08:07:11;;;;;;;13.17;2.27;;;;;;;3.67;100.00;100924.39;3455336;84;27188;-88
2022/12/27 08:12:13;;;;;;;11.10;2.27;;;;;;;3.68;100.00;100928.71;3454771;84;98763;-87
2022/12/27 08:17:29;;;;;;;9.60;2.30;;;;;;;3.69;100.00;100944.73;3457937;84;26078;-87
2022/12/27 08:22:30;;;;;;;7.63;2.00;;;;;;;3.72;100.00;100956.33;3450350;84;98580;-90
2022/12/27 08:27:31;;;;;;;8.80;2.37;;;;;;;3.73;100.00;100951.70;3457166;84;34887;-89
2022/12/27 08:32:32;;;;;;;10.60;2.47;;;;;;;3.80;100.00;100946.57;3454375;84;98406;-87
2022/12/27 08:37:33;;;;;;;11.63;2.63;;;;;;;3.88;100.00;100956.11;3488603;83;34981;-89
2022/12/27 08:42:34;;;;;;;9.43;2.00;;;;;;;3.91;100.00;100956.02;3492187;83;98580;-88
2022/12/27 08:47:36;;;;;;;12.17;2.37;;;;;;;3.91;100.00;100951.39;3489388;83;34898;-88
2022/12/27 08:52:36;;;;;;;12.23;2.30;;;;;;;3.91;100.00;100953.30;3536534;82;98880;-86
2022/12/27 08:57:37;;;;;;;8.83;2.33;;;;;;;3.86;100.00;100957.54;3540419;82;34920;-90
2022/12/27 09:02:38;;;;;;;16.53;2.93;;;;;;;3.84;100.00;100957.07;3492614;83;98582;-85
2022/12/27 09:07:39;;;;;;;10.87;2.63;;;;;;;3.85;100.00;100959.48;3498936;83;34958;-86
2022/12/27 09:12:40;;;;;;;11.73;3.12;;;;;;;3.89;100.00;100967.81;3531120;82;98479;-87
2022/12/27 09:17:41;;;;;;;9.75;2.10;;;;;;;3.93;100.00;100974.23;3543526;82;33662;-94
2022/12/27 09:22:43;;;;;;;12.70;3.20;;;;;;;3.94;100.00;100973.88;3534747;82;98691;-89
2022/12/27 09:27:43;;;;;;;13.20;2.93;;;;;;;3.99;100.00;100979.75;3542086;82;26858;-89
2022/12/27 09:32:46;;;;;;;10.03;2.30;;;;;;;4.02;100.00;100981.27;3539082;82;98643;-87
2022/12/27 09:37:46;;;;;;;13.13;2.30;;;;;;;4.07;100.00;100979.75;3539625;82;28197;-87
2022/12/27 09:43:07;;;;;;;11.57;1.93;;;;;;;4.13;100.00;100988.55;3533298;82;99147;-86
2022/12/27 09:48:29;;;;;;;9.97;2.57;;;;;;;4.15;100.00;100994.50;3520868;82;25949;-87
2022/12/27 09:53:47;;;;;;;11.65;2.40;;;;;;;4.24;100.00;101000.73;3526513;82;98487;-88
2022/12/27 09:58:53;;;;;;;10.80;2.63;;;;;;;4.27;100.00;101004.97;3535069;82;26213;-86
2022/12/27 10:03:54;;;;;;;15.08;3.70;;;;;;;4.31;100.00;100995.63;3524848;82;98462;-86
2022/12/27 10:09:15;;;;;;;9.20;2.37;;;;;;;4.34;100.00;100989.51;3538184;82;32552;-87
2022/12/27 10:15:10;;;;;;;10.27;2.50;;;;;;;4.37;99.56;100985.58;3533640;82;98465;-88
2022/12/27 10:20:25;;;;;;;12.58;4.22;;;;;;;4.44;100.00;100975.56;3542817;82;32588;-88
2022/12/27 10:25:27;;;;;;;10.30;2.63;;;;;;;4.53;99.72;100974.41;3529971;82;98561;-88
2022/12/27 10:30:30;;;;;;;8.90;3.03;;;;;;;4.60;99.46;100971.20;3534118;82;26445;-90
2022/12/27 10:35:31;;;;;;;11.63;3.17;;;;;;;4.65;99.00;100972.40;3525875;82;98259;-94
2022/12/27 10:41:02;;;;;;;8.93;2.37;;;;;;;4.70;98.62;100969.50;3516343;82;43733;-86
2022/12/27 10:46:19;;;;;;;13.03;3.08;;;;;;;4.73;98.73;100972.37;3541404;81;33717;-87
2022/12/27 10:51:22;;;;;;;10.40;2.40;;;;;;;4.79;98.60;100962.89;3532540;82;98476;-88
2022/12/27 10:56:34;;;;;;;11.33;2.83;;;;;;;4.82;98.13;100970.98;3530624;82;29566;-87
2022/12/27 11:01:35;;;;;;;10.43;3.43;;;;;;;4.84;98.18;100973.63;3527243;82;98651;-91
2022/12/27 11:06:37;;;;;;;13.97;4.30;;;;;;;4.84;97.63;100966.81;3541363;82;33112;-88
2022/12/27 11:11:39;;;;;;;10.10;2.50;;;;;;;4.83;97.07;100964.41;3535753;82;98408;-88
2022/12/27 11:17:00;;;;;;;7.90;2.40;;;;;;;4.82;97.33;100977.80;3537300;82;31165;-90
2022/12/27 11:22:08;;;;;;;13.50;3.47;;;;;;;4.83;97.66;100970.67;3532620;82;98530;-88
2022/12/27 11:27:29;;;;;;;12.13;3.37;;;;;;;4.85;97.45;100979.90;3535672;82;25927;-89
2022/12/27 11:32:38;;;;;;;10.50;2.83;;;;;;;4.86;97.44;100976.03;3369956;84;98374;-86
2022/12/27 11:37:39;;;;;;;10.23;2.90;;;;;;;4.90;97.43;100980.51;3394499;84;26380;-86
2022/12/27 11:42:47;;;;;;;10.00;2.67;;;;;;;4.95;96.99;100984.42;3466553;84;98455;-88
2022/12/27 11:48:06;;;;;;;10.47;3.47;;;;;;;5.01;96.87;100998.67;3475257;84;29147;-90
2022/12/27 11:53:21;;;;;;;10.43;3.33;;;;;;;5.03;96.65;100989.03;3465234;82;98531;-87
2022/12/27 11:58:49;;;;;;;12.53;3.00;;;;;;;5.06;96.48;100988.39;3456138;84;31143;-86
2022/12/27 12:04:19;;;;;;;7.75;2.70;;;;;;;5.07;96.47;100990.58;3459902;84;98784;-88
2022/12/27 12:09:31;;;;;;;10.80;2.23;;;;;;;5.07;96.04;100994.66;3468500;84;27759;-88
2022/12/27 12:15:24;;;;;;;7.83;2.43;;;;;;;5.07;96.18;101000.13;3450707;84;98309;-90
2022/12/27 12:20:36;;;;;;;17.70;3.40;;;;;;;5.07;96.23;100995.45;3477007;84;26347;-85
2022/12/27 12:26:05;;;;;;;12.45;2.30;;;;;;;5.08;96.43;101003.86;3465008;83;98426;-86
2022/12/27 12:31:55;;;;;;;5.97;2.33;;;;;;;5.07;95.96;100997.39;3459623;83;98646;-88
2022/12/27 12:37:23;;;;;;;6.03;1.90;;;;;;;5.06;95.71;101003.95;3481112;82;26364;-86
2022/12/27 12:42:52;;;;;;;10.23;2.50;;;;;;;5.04;95.90;101013.03;3500728;81;98257;-87
2022/12/27 12:48:18;;;;;;;11.83;2.15;;;;;;;5.04;96.10;101025.31;3512642;82;33542;-92
2022/12/27 12:53:36;;;;;;;7.13;2.47;;;;;;;5.00;95.32;101025.72;3500352;82;98385;-85
2022/12/27 12:58:58;;;;;;;13.38;2.70;;;;;;;4.99;95.91;101026.84;3509127;82;35528;-89
2022/12/27 13:04:38;;;;;;;17.37;4.67;;;;;;;4.96;95.68;101024.78;3502286;82;98404;-85
2022/12/27 13:09:59;;;;;;;11.57;2.60;;;;;;;4.94;95.93;101033.84;3511027;82;26101;-85
2022/12/27 13:15:29;;;;;;;12.83;2.57;;;;;;;4.91;95.95;101032.55;3506230;82;98433;-87
2022/12/27 13:20:50;;;;;;;9.67;2.77;;;;;;;4.92;95.98;101025.19;3512795;82;29111;-85
2022/12/27 13:26:19;;;;;;;13.07;3.20;;;;;;;4.93;96.18;101024.06;3511233;82;97892;-87
2022/12/27 13:31:49;;;;;;;15.47;4.33;;;;;;;4.92;96.21;101030.64;3478083;82;98586;-87
2022/12/27 13:37:39;;;;;;;11.22;3.30;;;;;;;4.92;95.87;101031.42;3524627;82;35658;-87
2022/12/27 13:42:59;;;;;;;10.80;2.97;;;;;;;4.91;96.25;101050.28;3500642;82;98373;-85
2022/12/27 13:48:45;;;;;;;10.57;3.73;;;;;;;4.91;96.28;101051.65;3511631;82;29725;-86
2022/12/27 13:54:21;;;;;;;8.97;2.83;;;;;;;4.90;96.10;101074.60;3470429;82;98445;-85
2022/12/27 13:59:53;;;;;;;8.17;2.40;;;;;;;4.89;96.04;101068.91;3519688;83;28177;-86
2022/12/27 14:05:35;;;;;;;17.47;3.83;;;;;;;4.86;95.98;101075.00;3515423;82;98032;-84
2022/12/27 14:10:47;;;;;;;14.10;4.10;;;;;;;4.87;95.82;101077.17;3520042;82;32977;-85
2022/12/27 14:16:33;;;;;;;20.10;7.40;;;;;;;4.86;95.77;101087.85;3519041;82;98846;-87
2022/12/27 14:21:57;;;;;;;12.20;3.30;;;;;;;4.84;95.74;101088.16;3544005;82;98531;-84
2022/12/27 14:27:40;;;;;;;10.53;3.37;;;;;;;4.82;95.77;101091.79;3545846;82;30648;-86
2022/12/27 14:32:50;;;;;;;12.40;4.28;;;;;;;4.83;95.62;101103.48;3518899;82;98737;-86
2022/12/27 14:38:29;;;;;;;10.83;3.00;;;;;;;4.81;95.81;101095.62;3531576;82;32865;-89
2022/12/27 14:44:29;;;;;;;11.80;3.55;;;;;;;4.79;95.47;101095.70;3534368;82;98576;-86
2022/12/27 14:50:10;;;;;;;13.80;4.10;;;;;;;4.79;95.78;101104.69;3541609;82;27217;-89
2022/12/27 14:55:54;;;;;;;12.95;5.15;;;;;;;4.77;95.79;101104.77;3534538;82;98213;-89
2022/12/27 15:01:19;;;;;;;22.53;6.97;;;;;;;4.77;96.01;101112.95;3514228;82;30123;-87
2022/12/27 15:07:26;;;;;;;15.68;6.65;;;;;;;4.75;96.04;101121.45;3534096;82;34234;-86
2022/12/27 15:12:47;;;;;;;16.65;5.37;;;;;;;4.77;96.21;101127.95;3529003;82;98653;-87
2022/12/27 15:18:33;;;;;;;12.57;3.47;;;;;;;4.72;96.07;101123.47;3540506;82;26035;-86
2022/12/27 15:24:04;;;;;;;11.07;3.47;;;;;;;4.70;96.04;101116.16;3537178;82;98716;-90
2022/12/27 15:29:41;;;;;;;13.85;4.00;;;;;;;4.69;95.96;101125.46;3541836;82;34646;-85
2022/12/27 15:34:50;;;;;;;14.75;5.85;;;;;;;4.68;96.17;101120.32;3555577;80;98123;-84
2022/12/27 15:39:51;;;;;;;14.23;3.53;;;;;;;4.66;96.07;101130.76;3490256;82;27251;-84
2022/12/27 15:45:20;;;;;;;9.43;3.57;;;;;;;4.64;96.22;101132.43;3452132;84;98415;-86
2022/12/27 15:50:34;;;;;;;12.73;3.53;;;;;;;4.64;96.04;101150.16;3446318;82;29416;-86
2022/12/27 15:56:09;;;;;;;15.10;3.37;;;;;;;4.66;95.82;101151.20;3420285;84;98862;-85
2022/12/27 16:01:28;;;;;;;12.20;4.00;;;;;;;4.68;95.51;101162.58;3452906;83;98806;-86
2022/12/27 16:06:47;;;;;;;13.93;4.13;;;;;;;4.70;95.28;101164.45;3453935;84;29999;-86
2022/12/27 16:12:11;;;;;;;12.83;3.37;;;;;;;4.70;95.03;101177.50;3427756;84;98749;-86
2022/12/27 16:17:35;;;;;;;12.03;3.10;;;;;;;4.71;94.63;101178.31;3456654;84;26174;-86
2022/12/27 16:23:11;;;;;;;;;;;;;;;;;;;;;
2022/12/27 16:28:13;;;;;;;;;;;;;;;4.74;94.06;101185.29;3427077;84;25910;-85
2022/12/27 16:33:36;;;;;;;10.48;3.42;;;;;;;4.75;92.85;101190.20;3470293;82;84445;-86
2022/12/27 16:39:04;;;;;;;15.27;4.37;;;;;;;4.75;93.61;101184.74;3499029;82;25852;-86
2022/12/27 16:44:50;;;;;;;12.07;3.40;;;;;;;4.75;93.45;101186.89;3533093;82;98277;-86
2022/12/27 16:50:31;;;;;;;13.70;4.90;;;;;;;4.75;93.34;101182.80;3432111;84;32574;-85
2022/12/27 16:56:16;;;;;;;12.40;4.03;;;;;;;4.73;93.59;101182.87;3502637;82;98489;-84
2022/12/27 17:01:54;;;;;;;9.90;3.40;;;;;;;4.70;94.05;101191.71;3534458;81;98456;-86
2022/12/27 17:07:04;;;;;;;12.10;3.47;;;;;;;4.69;94.22;101201.80;3532646;82;26317;-85
2022/12/27 17:12:19;;;;;;;13.87;4.77;;;;;;;4.65;94.52;101198.09;3498203;82;98704;-85
2022/12/27 17:17:22;;;;;;;11.30;3.63;;;;;;;4.68;94.48;101211.66;3562128;80;30216;-85
2022/12/27 17:22:25;;;;;;;10.97;3.57;;;;;;;4.66;94.52;101217.45;3567376;81;98380;-85
2022/12/27 17:27:38;;;;;;;11.40;4.33;;;;;;;4.68;94.55;101217.11;3566190;81;26498;-84
2022/12/27 17:32:53;;;;;;;12.70;3.77;;;;;;;4.67;94.29;101216.33;3555832;81;98490;-85
2022/12/27 17:38:41;;;;;;;11.43;3.67;;;;;;;4.66;94.26;101207.91;3555259;81;31629;-84
2022/12/27 17:49:29;;;;;;;8.35;2.60;;;;;;;4.52;94.17;101234.48;3544903;81;36176;-84
2022/12/27 17:59:50;;;;;;;13.23;3.70;;;;;;;4.36;94.58;101232.53;3441804;81;26208;-86
2022/12/27 18:04:54;;;;;;;9.27;2.97;;;;;;;4.24;94.60;101233.67;3548096;81;98270;-85
2022/12/27 18:10:07;;;;;;;15.73;3.33;;;;;;;4.16;94.84;101242.63;3558133;81;26199;-85
2022/12/27 18:15:22;;;;;;;11.70;3.93;;;;;;;4.08;95.21;101237.94;3545625;80;98267;-85
2022/12/27 18:20:37;;;;;;;13.63;4.43;;;;;;;4.00;95.52;101247.70;3560151;80;25913;-84
2022/12/27 18:26:08;;;;;;;17.98;7.53;;;;;;;3.92;95.97;101250.34;3554744;80;98507;-86
2022/12/27 18:31:45;;;;;;;16.67;6.30;;;;;;;3.86;96.37;101251.60;3543974;81;98327;-83
2022/12/27 18:37:12;;;;;;;17.70;5.30;;;;;;;3.81;96.80;101265.34;3546491;80;26660;-85
2022/12/27 18:43:03;;;;;;;14.00;5.22;;;;;;;3.73;97.27;101253.31;3565608;80;98905;-86
2022/12/27 18:47:58;;;;;;;17.00;6.17;;;;;;;3.67;97.63;101256.47;3568881;80;26212;-88
2022/12/27 18:53:48;;;;;;;;;;;;;;;;;;;;;
2022/12/27 18:59:18;;;;;;;12.57;6.20;;;;;;;3.55;98.16;101255.66;3449299;83;26113;-87
2022/12/27 19:04:23;;;;;;;16.03;6.73;;;;;;;3.48;98.49;101250.41;3518982;81;98775;-87
2022/12/27 19:09:53;;;;;;;20.10;6.73;;;;;;;3.41;98.78;101260.92;3573337;81;29752;-87
2022/12/27 19:14:54;;;;;;;15.50;5.87;;;;;;;3.37;99.02;101280.34;3576613;80;98466;-88
2022/12/27 19:20:05;;;;;;;19.03;6.27;;;;;;;3.31;99.19;101266.61;3571547;81;32507;-85
2022/12/27 19:25:42;;;;;;;21.77;8.03;;;;;;;3.27;99.36;101277.30;3565337;80;98102;-87
2022/12/27 19:31:16;;;;;;;19.57;6.97;;;;;;;3.23;99.54;101283.67;3564146;81;26211;-87
2022/12/27 19:36:23;;;;;;;15.13;5.30;;;;;;;3.12;99.87;101272.78;3573585;81;26007;-86
2022/12/27 19:41:25;;;;;;;15.28;5.92;;;;;;;3.09;99.95;101283.72;3565383;79;100102;-87
2022/12/27 19:46:26;;;;;;;14.90;6.00;;;;;;;3.00;100.00;101278.75;3590025;79;29620;-86
2022/12/27 19:51:27;;;;;;;11.83;5.70;;;;;;;2.95;100.00;101280.22;3565181;80;98924;-89
2022/12/27 19:56:28;;;;;;;12.17;5.10;;;;;;;2.89;100.00;101279.30;3577194;81;32449;-86
2022/12/27 20:01:29;;;;;;;12.47;5.60;;;;;;;2.84;100.00;101287.56;3569405;81;98947;-85
2022/12/27 20:06:36;;;;;;;15.60;6.53;;;;;;;2.79;100.00;101286.30;3565708;81;32437;-85
2022/12/27 20:11:39;;;;;;;14.23;6.20;;;;;;;2.73;100.00;101281.52;3567747;80;98822;-87
2022/12/27 20:16:52;;;;;;;15.17;6.37;;;;;;;2.70;100.00;101292.20;3605902;78;33164;-86
2022/12/27 20:21:53;;;;;;;19.40;6.60;;;;;;;2.64;100.00;101296.12;3547592;80;98885;-87
2022/12/27 20:27:11;;;;;;;14.77;6.47;;;;;;;2.58;100.00;101284.55;3564753;81;33189;-87
2022/12/27 20:32:11;;;;;;;16.57;6.70;;;;;;;2.55;100.00;101294.67;3561591;81;98891;-87
2022/12/27 20:37:12;;;;;;;13.03;5.97;;;;;;;2.49;100.00;101303.22;3564552;81;32438;-93
2022/12/27 20:42:13;;;;;;;16.53;6.23;;;;;;;2.43;100.00;101307.97;3556628;81;98663;-85
2022/12/27 20:47:14;;;;;;;19.30;7.47;;;;;;;2.40;100.00;101313.20;3527928;81;32460;-87
2022/12/27 20:52:15;;;;;;;14.67;6.63;;;;;;;2.34;100.00;101317.09;3553629;81;98931;-87
2022/12/27 20:57:16;;;;;;;16.43;6.77;;;;;;;2.29;100.00;101315.86;3555054;81;33059;-84
2022/12/27 21:02:17;;;;;;;20.03;6.93;;;;;;;2.26;100.00;101324.59;3554462;81;98900;-86
2022/12/27 21:07:19;;;;;;;16.10;7.03;;;;;;;2.20;100.00;101317.65;3562616;81;32951;-87
2022/12/27 21:12:20;;;;;;;17.80;7.13;;;;;;;2.19;100.00;101310.61;3555264;81;98637;-85
2022/12/27 21:17:21;;;;;;;20.57;6.70;;;;;;;2.15;100.00;101309.59;3559634;81;33019;-86
2022/12/27 21:22:28;;;;;;;17.37;6.90;;;;;;;2.15;100.00;101309.59;3553734;81;98950;-87
2022/12/27 21:27:27;;;;;;;18.63;8.90;;;;;;;2.13;100.00;101309.89;3558452;81;29198;-86
2022/12/27 21:32:27;;;;;;;14.60;6.40;;;;;;;2.10;100.00;101311.04;3565793;80;99059;-85
2022/12/27 21:37:28;;;;;;;16.03;6.57;;;;;;;2.07;100.00;101317.88;3525824;82;32492;-87
2022/12/27 21:42:29;;;;;;;14.10;6.50;;;;;;;2.05;100.00;101324.70;3515357;82;98541;-87
2022/12/27 21:47:30;;;;;;;16.50;7.17;;;;;;;2.01;100.00;101321.78;3522009;82;32595;-86
2022/12/27 21:52:33;;;;;;;17.33;7.43;;;;;;;2.00;100.00;101319.36;3514988;82;98912;-86
2022/12/27 21:57:33;;;;;;;18.63;7.17;;;;;;;1.95;100.00;101314.02;3525202;82;32376;-86
2022/12/27 22:02:37;;;;;;;22.33;7.90;;;;;;;1.91;100.00;101313.81;3477868;83;98595;-86
2022/12/27 22:07:39;;;;;;;18.23;9.43;;;;;;;1.89;100.00;101307.07;3522301;82;26825;-85
2022/12/27 22:12:42;;;;;;;19.93;9.17;;;;;;;1.86;100.00;101319.33;3513750;82;98800;-85
2022/12/27 22:17:43;;;;;;;23.33;9.47;;;;;;;1.82;100.00;101307.48;3527835;82;28239;-85
2022/12/27 22:22:44;;;;;;;24.03;9.60;;;;;;;1.79;100.00;101303.98;3497611;82;98730;-86
2022/12/27 22:27:45;;;;;;;20.70;10.07;;;;;;;1.74;100.00;101300.00;3521916;82;32454;-88
2022/12/27 22:32:45;;;;;;;24.77;10.20;;;;;;;1.71;100.00;101301.94;3515846;82;99069;-85
2022/12/27 22:37:46;;;;;;;24.63;10.33;;;;;;;1.65;100.00;101305.05;3484791;83;32495;-86
2022/12/27 22:42:47;;;;;;;32.13;14.53;;;;;;;1.58;100.00;101308.14;3509221;82;98874;-86
2022/12/27 22:47:48;;;;;;;24.70;11.33;;;;;;;1.56;100.00;101293.25;3524794;82;32100;-86
2022/12/27 22:52:48;;;;;;;25.40;10.57;;;;;;;1.49;100.00;101289.55;3514226;82;100213;-86
2022/12/27 22:57:51;;;;;;;20.95;9.30;;;;;;;1.44;100.00;101283.42;3516039;82;26202;-87
2022/12/27 23:02:52;;;;;;;23.53;9.53;;;;;;;1.37;100.00;101293.28;3503544;82;98442;-86
2022/12/27 23:07:53;;;;;;;22.87;9.13;;;;;;;1.32;100.00;101291.21;3514330;83;25906;-87
2022/12/27 23:12:55;;;;;;;21.33;9.05;;;;;;;1.25;100.00;101287.51;3480357;83;98978;-87
2022/12/27 23:17:56;;;;;;;27.27;11.23;;;;;;;1.20;100.00;101286.80;3483846;83;27577;-86
2022/12/27 23:22:57;;;;;;;18.42;8.30;;;;;;;1.13;100.00;101284.44;3477440;83;98710;-86
2022/12/27 23:28:01;;;;;;;22.97;10.43;;;;;;;1.09;100.00;101282.62;3475596;83;26045;-87
2022/12/27 23:33:01;;;;;;;22.97;10.80;;;;;;;1.05;100.00;101277.52;3476088;83;98773;-86
2022/12/27 23:38:09;;;;;;;26.83;11.37;;;;;;;0.98;100.00;101281.94;3480038;83;26982;-86
2022/12/27 23:43:10;;;;;;;28.53;11.43;;;;;;;0.94;100.00;101271.98;3460827;84;98762;-86
2022/12/27 23:48:11;;;;;;;23.27;11.10;;;;;;;0.89;100.00;101268.00;3417716;85;26376;-86
2022/12/27 23:53:12;;;;;;;23.70;10.83;;;;;;;0.86;100.00;101255.84;3455328;84;99016;-85
2022/12/27 23:58:12;;;;;;;25.57;10.37;;;;;;;0.83;100.00;101249.63;3387175;86;25770;-85
